Time;durP1;ratioP1;P1;durP2;ratioP2;P2;SDS_P1;SDS_P2;PMS_P1;PMS_P2;Temp;Humidity;BMP_temperature;BMP_pressure;BME280_temperature;BME280_humidity;BME280_pressure;Samples;Min_cycle;Max_cycle;Signal;HPM_P1;HPM_P2
2024/03/26 00:00:32;;;;;;;5.72;3.78;;;;;;;;;;5032824;28;20057;-62
2024/03/26 00:02:57;;;;;;;10.05;5.07;;;;;;;;;;5033306;28;20399;-65
2024/03/26 00:05:23;;;;;;;8.07;4.00;;;;;;;;;;5034335;28;20044;-62
2024/03/26 00:07:49;;;;;;;7.90;3.80;;;;;;;;;;5034323;28;20025;-62
2024/03/26 00:10:15;;;;;;;9.52;4.00;;;;;;;;;;5034161;28;20423;-64
2024/03/26 00:12:41;;;;;;;7.03;3.70;;;;;;;;;;5032744;28;20052;-62
2024/03/26 00:15:07;;;;;;;8.07;4.07;;;;;;;;;;5034163;28;20492;-63
2024/03/26 00:17:32;;;;;;;9.50;4.50;;;;;;;;;;5032855;28;20033;-63
2024/03/26 00:19:58;;;;;;;8.35;4.25;;;;;;;;;;5033959;28;20111;-63
2024/03/26 00:22:25;;;;;;;8.05;3.78;;;;;;;;;;5032938;28;20495;-64
2024/03/26 00:24:51;;;;;;;8.70;4.00;;;;;;;;;;5033858;28;20042;-63
2024/03/26 00:27:16;;;;;;;9.25;4.68;;;;;;;;;;5032494;28;20038;-63
2024/03/26 00:29:42;;;;;;;8.18;4.70;;;;;;;;;;5032267;28;20052;-64
2024/03/26 00:32:08;;;;;;;10.13;5.65;;;;;;;;;;5032773;28;20036;-63
2024/03/26 00:34:34;;;;;;;8.93;4.53;;;;;;;;;;5033605;28;20491;-63
2024/03/26 00:36:59;;;;;;;6.03;3.88;;;;;;;;;;5033498;28;20329;-63
2024/03/26 00:39:25;;;;;;;8.32;4.43;;;;;;;;;;5033629;28;20069;-63
2024/03/26 00:41:50;;;;;;;9.50;5.47;;;;;;;;;;5032307;28;20125;-63
2024/03/26 00:44:16;;;;;;;10.93;5.10;;;;;;;;;;5033404;28;20534;-63
2024/03/26 00:46:41;;;;;;;12.13;5.18;;;;;;;;;;5031896;28;20037;-62
2024/03/26 00:49:07;;;;;;;8.27;4.53;;;;;;;;;;5033550;28;20037;-63
2024/03/26 00:51:34;;;;;;;9.20;4.65;;;;;;;;;;5033446;28;20033;-64
2024/03/26 00:53:59;;;;;;;10.35;4.50;;;;;;;;;;5032007;28;20045;-61
2024/03/26 00:56:25;;;;;;;10.52;4.97;;;;;;;;;;5033350;28;20038;-64
2024/03/26 00:58:51;;;;;;;9.25;5.00;;;;;;;;;;5015495;28;20069;-62
2024/03/26 01:01:16;;;;;;;9.32;5.00;;;;;;;;;;5033207;28;20040;-62
2024/03/26 01:03:42;;;;;;;9.23;5.38;;;;;;;;;;5033540;28;20403;-64
2024/03/26 01:06:07;;;;;;;9.93;4.80;;;;;;;;;;5032886;28;20025;-63
2024/03/26 01:08:33;;;;;;;10.43;5.00;;;;;;;;;;5032984;28;20042;-63
2024/03/26 01:10:59;;;;;;;9.13;5.50;;;;;;;;;;5014971;28;20057;-65
2024/03/26 01:13:24;;;;;;;10.98;5.25;;;;;;;;;;5033064;28;20499;-62
2024/03/26 01:15:51;;;;;;;7.10;4.65;;;;;;;;;;5031505;28;20411;-64
2024/03/26 01:18:17;;;;;;;9.63;4.78;;;;;;;;;;5032681;28;20037;-63
2024/03/26 01:20:43;;;;;;;7.85;4.85;;;;;;;;;;5032788;28;20083;-63
2024/03/26 01:23:09;;;;;;;8.77;4.88;;;;;;;;;;5033013;28;20044;-63
2024/03/26 01:25:35;;;;;;;12.27;4.88;;;;;;;;;;5032565;28;20038;-65
2024/03/26 01:28:01;;;;;;;10.90;4.95;;;;;;;;;;5032068;28;20072;-62
2024/03/26 01:30:26;;;;;;;9.75;5.07;;;;;;;;;;5033025;28;20038;-62
2024/03/26 01:32:52;;;;;;;8.73;5.40;;;;;;;;;;5032470;28;20045;-62
2024/03/26 01:35:18;;;;;;;10.23;5.07;;;;;;;;;;5032767;28;20040;-63
2024/03/26 01:37:44;;;;;;;9.95;5.57;;;;;;;;;;5032201;28;20041;-62
2024/03/26 01:40:11;;;;;;;8.68;5.32;;;;;;;;;;5032769;28;20034;-63
2024/03/26 01:42:38;;;;;;;8.68;5.03;;;;;;;;;;5030827;28;20037;-64
2024/03/26 01:45:04;;;;;;;9.73;5.18;;;;;;;;;;5031325;28;20049;-62
2024/03/26 01:47:31;;;;;;;9.88;5.00;;;;;;;;;;5032252;28;20030;-64
2024/03/26 01:49:58;;;;;;;7.00;4.85;;;;;;;;;;5032549;28;20120;-62
2024/03/26 01:52:25;;;;;;;12.88;4.90;;;;;;;;;;5032170;28;20037;-62
2024/03/26 01:54:51;;;;;;;6.82;4.70;;;;;;;;;;5030960;28;20499;-63
2024/03/26 01:57:16;;;;;;;8.32;5.30;;;;;;;;;;5032282;28;20041;-61
2024/03/26 01:59:42;;;;;;;9.57;5.53;;;;;;;;;;5031903;28;20057;-61
2024/03/26 02:02:07;;;;;;;9.80;5.28;;;;;;;;;;5031910;28;20511;-62
2024/03/26 02:04:34;;;;;;;9.75;5.55;;;;;;;;;;5032144;28;20499;-62
2024/03/26 02:06:59;;;;;;;12.93;5.65;;;;;;;;;;5030575;28;20041;-62
2024/03/26 02:09:25;;;;;;;13.43;5.82;;;;;;;;;;5031931;28;20041;-62
2024/03/26 02:11:50;;;;;;;12.35;5.75;;;;;;;;;;5030539;28;20037;-63
2024/03/26 02:14:17;;;;;;;10.80;6.28;;;;;;;;;;5030469;28;20045;-62
2024/03/26 02:16:43;;;;;;;11.10;5.90;;;;;;;;;;5030623;28;20052;-62
2024/03/26 02:19:09;;;;;;;10.40;5.75;;;;;;;;;;5030238;28;20526;-63
2024/03/26 02:21:35;;;;;;;10.10;5.68;;;;;;;;;;5031983;28;20033;-64
2024/03/26 02:24:01;;;;;;;10.52;6.00;;;;;;;;;;5031689;28;20044;-63
2024/03/26 02:26:26;;;;;;;11.05;6.45;;;;;;;;;;5030429;28;20412;-64
2024/03/26 02:28:55;;;;;;;14.48;6.85;;;;;;;;;;5031414;28;20418;-63
2024/03/26 02:31:20;;;;;;;14.43;6.88;;;;;;;;;;5031854;28;20033;-63
2024/03/26 02:33:46;;;;;;;14.18;6.72;;;;;;;;;;5030199;28;20534;-63
2024/03/26 02:36:12;;;;;;;9.98;5.90;;;;;;;;;;5030289;28;20033;-63
2024/03/26 02:38:37;;;;;;;8.65;6.03;;;;;;;;;;5029765;28;20041;-63
2024/03/26 02:41:03;;;;;;;9.90;5.82;;;;;;;;;;5029833;28;20041;-63
2024/03/26 02:43:30;;;;;;;12.48;6.40;;;;;;;;;;5031685;28;20099;-63
2024/03/26 02:45:55;;;;;;;9.35;6.03;;;;;;;;;;5031354;28;20559;-62
2024/03/26 02:48:21;;;;;;;11.77;5.95;;;;;;;;;;5031571;28;20116;-62
2024/03/26 02:50:53;;;;;;;11.90;6.68;;;;;;;;;;5029885;28;20033;-62
2024/03/26 02:53:23;;;;;;;10.65;5.78;;;;;;;;;;5031428;28;20080;-62
2024/03/26 02:55:49;;;;;;;9.30;5.60;;;;;;;;;;5029920;28;20495;-63
2024/03/26 02:58:15;;;;;;;12.68;6.70;;;;;;;;;;5031463;28;20036;-62
2024/03/26 03:00:40;;;;;;;11.68;6.35;;;;;;;;;;5030902;28;20511;-62
2024/03/26 03:03:06;;;;;;;13.70;6.28;;;;;;;;;;5031200;28;20034;-63
2024/03/26 03:05:32;;;;;;;9.10;5.90;;;;;;;;;;5030062;28;20044;-61
2024/03/26 03:07:57;;;;;;;9.85;5.78;;;;;;;;;;5029421;28;20040;-63
2024/03/26 03:10:23;;;;;;;9.77;5.57;;;;;;;;;;5031327;28;20069;-62
2024/03/26 03:12:48;;;;;;;11.43;6.00;;;;;;;;;;5029887;28;20507;-63
2024/03/26 03:15:14;;;;;;;14.07;6.30;;;;;;;;;;5031282;28;20125;-63
2024/03/26 03:17:40;;;;;;;10.27;5.82;;;;;;;;;;5031216;28;20415;-64
2024/03/26 03:20:06;;;;;;;9.23;6.10;;;;;;;;;;5029679;28;20044;-63
2024/03/26 03:22:32;;;;;;;12.27;6.45;;;;;;;;;;5031093;28;20037;-63
2024/03/26 03:24:57;;;;;;;11.15;6.68;;;;;;;;;;5013064;28;20044;-63
2024/03/26 03:27:23;;;;;;;13.32;6.10;;;;;;;;;;5031281;28;20132;-63
2024/03/26 03:29:48;;;;;;;13.13;6.45;;;;;;;;;;5031309;28;20041;-63
2024/03/26 03:32:14;;;;;;;11.45;6.78;;;;;;;;;;5030514;28;20037;-63
2024/03/26 03:34:39;;;;;;;12.95;6.50;;;;;;;;;;5030856;28;20132;-61
2024/03/26 03:37:05;;;;;;;11.25;6.15;;;;;;;;;;5013226;28;20454;-64
2024/03/26 03:39:31;;;;;;;12.38;6.75;;;;;;;;;;5029389;28;20033;-63
2024/03/26 03:41:56;;;;;;;11.73;6.57;;;;;;;;;;5029327;28;20076;-64
2024/03/26 03:44:22;;;;;;;11.27;6.57;;;;;;;;;;5031067;28;20128;-62
2024/03/26 03:46:47;;;;;;;12.60;6.90;;;;;;;;;;5029608;28;20087;-64
2024/03/26 03:49:13;;;;;;;13.73;6.30;;;;;;;;;;5030642;28;20625;-63
2024/03/26 03:51:39;;;;;;;11.40;6.53;;;;;;;;;;5014663;28;20029;-66
2024/03/26 03:54:04;;;;;;;11.30;6.95;;;;;;;;;;5034001;28;20045;-63
2024/03/26 03:56:30;;;;;;;11.98;6.82;;;;;;;;;;5026283;28;20033;-64
2024/03/26 03:58:55;;;;;;;10.25;6.53;;;;;;;;;;5031774;28;20057;-63
2024/03/26 04:01:22;;;;;;;12.35;6.43;;;;;;;;;;5022416;28;20053;-62
2024/03/26 04:03:48;;;;;;;11.18;6.70;;;;;;;;;;5054739;28;20036;-62
2024/03/26 04:06:14;;;;;;;13.02;7.03;;;;;;;;;;5030783;28;20038;-64
2024/03/26 04:08:39;;;;;;;10.38;6.22;;;;;;;;;;5030921;28;20495;-61
2024/03/26 04:11:06;;;;;;;12.38;6.72;;;;;;;;;;5031888;28;20475;-64
2024/03/26 04:13:31;;;;;;;9.88;6.22;;;;;;;;;;5033298;28;20147;-63
2024/03/26 04:15:57;;;;;;;9.10;6.50;;;;;;;;;;5026796;28;20562;-62
2024/03/26 04:18:23;;;;;;;13.90;7.70;;;;;;;;;;5033742;28;20411;-64
2024/03/26 04:20:49;;;;;;;13.30;7.22;;;;;;;;;;5033636;28;20041;-63
2024/03/26 04:23:14;;;;;;;14.95;8.25;;;;;;;;;;5033426;28;20037;-65
2024/03/26 04:25:40;;;;;;;10.82;6.85;;;;;;;;;;5032071;28;20484;-65
2024/03/26 04:28:06;;;;;;;14.55;7.47;;;;;;;;;;5033530;28;20037;-63
2024/03/26 04:30:32;;;;;;;12.93;6.82;;;;;;;;;;5034234;28;20056;-66
2024/03/26 04:32:57;;;;;;;11.05;6.88;;;;;;;;;;5033669;28;20049;-66
2024/03/26 04:35:23;;;;;;;9.00;5.95;;;;;;;;;;5033605;28;20044;-64
2024/03/26 04:37:48;;;;;;;10.32;6.40;;;;;;;;;;5033815;28;20048;-66
2024/03/26 04:40:14;;;;;;;11.90;6.13;;;;;;;;;;5032185;28;20416;-64
2024/03/26 04:42:39;;;;;;;13.18;6.25;;;;;;;;;;5033459;28;20037;-64
2024/03/26 04:45:05;;;;;;;12.50;6.97;;;;;;;;;;5033250;28;20034;-61
2024/03/26 04:47:31;;;;;;;10.45;6.25;;;;;;;;;;5033060;28;20037;-63
2024/03/26 04:49:57;;;;;;;10.18;6.18;;;;;;;;;;5021763;28;20394;-63
2024/03/26 04:52:22;;;;;;;13.07;7.40;;;;;;;;;;5024324;28;20034;-62
2024/03/26 04:54:48;;;;;;;11.02;6.97;;;;;;;;;;5031111;28;20030;-62
2024/03/26 04:57:13;;;;;;;11.50;6.70;;;;;;;;;;5023618;28;20491;-64
2024/03/26 04:59:39;;;;;;;12.05;6.55;;;;;;;;;;5030940;28;20397;-67
2024/03/26 05:02:04;;;;;;;10.60;7.07;;;;;;;;;;5019945;28;20120;-64
2024/03/26 05:04:30;;;;;;;12.18;7.00;;;;;;;;;;5030886;28;20053;-64
2024/03/26 05:06:56;;;;;;;11.63;7.10;;;;;;;;;;5022991;28;20034;-64
2024/03/26 05:09:21;;;;;;;12.27;7.43;;;;;;;;;;5058402;28;20022;-62
2024/03/26 05:11:47;;;;;;;11.93;7.50;;;;;;;;;;5032393;28;20184;-62
2024/03/26 05:14:12;;;;;;;12.38;7.68;;;;;;;;;;5029613;28;20037;-62
2024/03/26 05:16:38;;;;;;;16.02;7.18;;;;;;;;;;5013990;28;20439;-63
2024/03/26 05:19:04;;;;;;;11.48;7.18;;;;;;;;;;5030227;28;20117;-64
2024/03/26 05:21:29;;;;;;;11.52;6.82;;;;;;;;;;5031897;28;20095;-64
2024/03/26 05:23:55;;;;;;;12.73;7.45;;;;;;;;;;5032294;28;20570;-64
2024/03/26 05:26:20;;;;;;;10.50;6.68;;;;;;;;;;5032585;28;20041;-64
2024/03/26 05:28:46;;;;;;;10.73;7.15;;;;;;;;;;5031866;28;20475;-64
2024/03/26 05:31:16;;;;;;;10.50;6.45;;;;;;;;;;5032113;28;20033;-62
2024/03/26 05:33:42;;;;;;;9.65;6.30;;;;;;;;;;5031685;28;20041;-63
2024/03/26 05:36:08;;;;;;;12.60;6.30;;;;;;;;;;5031915;28;20091;-64
2024/03/26 05:38:34;;;;;;;9.90;6.63;;;;;;;;;;5032039;28;20033;-64
2024/03/26 05:40:59;;;;;;;11.05;6.20;;;;;;;;;;5031835;28;20080;-64
2024/03/26 05:43:25;;;;;;;10.27;5.45;;;;;;;;;;5031654;28;20124;-64
2024/03/26 05:45:50;;;;;;;11.07;5.90;;;;;;;;;;5030278;28;20056;-63
2024/03/26 05:48:16;;;;;;;9.55;5.38;;;;;;;;;;5030332;28;20071;-63
2024/03/26 05:50:42;;;;;;;16.15;8.63;;;;;;;;;;5029957;28;20076;-64
2024/03/26 05:53:08;;;;;;;11.50;6.28;;;;;;;;;;5032043;28;20076;-63
2024/03/26 05:55:33;;;;;;;12.10;6.93;;;;;;;;;;5030454;28;20068;-64
2024/03/26 05:57:59;;;;;;;10.93;5.68;;;;;;;;;;5020576;28;20204;-66
2024/03/26 06:00:24;;;;;;;10.85;5.90;;;;;;;;;;5029645;28;20049;-64
2024/03/26 06:02:50;;;;;;;12.05;5.43;;;;;;;;;;5031562;28;20649;-67
2024/03/26 06:05:15;;;;;;;11.43;6.20;;;;;;;;;;5023110;28;20444;-65
2024/03/26 06:07:41;;;;;;;10.18;6.18;;;;;;;;;;5028800;28;20034;-67
2024/03/26 06:10:07;;;;;;;14.30;6.13;;;;;;;;;;5024423;28;20040;-65
2024/03/26 06:12:32;;;;;;;9.05;5.75;;;;;;;;;;5031133;28;20087;-66
2024/03/26 06:14:58;;;;;;;12.60;6.10;;;;;;;;;;5020958;28;20376;-66
2024/03/26 06:17:24;;;;;;;10.77;5.80;;;;;;;;;;5028970;28;20124;-66
2024/03/26 06:19:49;;;;;;;10.80;5.70;;;;;;;;;;5020805;28;20034;-65
2024/03/26 06:22:15;;;;;;;8.93;4.85;;;;;;;;;;5031337;28;20124;-67
2024/03/26 06:24:40;;;;;;;7.45;4.72;;;;;;;;;;5024354;28;20445;-65
2024/03/26 06:27:07;;;;;;;13.02;6.80;;;;;;;;;;5031027;28;20037;-67
2024/03/26 06:29:33;;;;;;;15.25;6.00;;;;;;;;;;5030634;28;20555;-65
2024/03/26 06:31:58;;;;;;;9.00;5.80;;;;;;;;;;5024096;28;20128;-68
2024/03/26 06:34:24;;;;;;;13.85;7.15;;;;;;;;;;5028219;28;20053;-65
2024/03/26 06:36:50;;;;;;;10.93;6.47;;;;;;;;;;5030992;28;20475;-66
2024/03/26 06:39:18;;;;;;;8.60;4.63;;;;;;;;;;5012874;28;20519;-66
2024/03/26 06:41:44;;;;;;;16.17;5.95;;;;;;;;;;5030639;28;20037;-65
2024/03/26 06:44:09;;;;;;;8.43;5.47;;;;;;;;;;5027977;28;20029;-65
2024/03/26 06:46:35;;;;;;;11.88;4.90;;;;;;;;;;5030754;28;20038;-66
2024/03/26 06:49:01;;;;;;;11.43;5.30;;;;;;;;;;5031066;28;20021;-66
2024/03/26 06:51:26;;;;;;;7.68;5.00;;;;;;;;;;5031142;28;20178;-65
2024/03/26 06:53:52;;;;;;;11.38;5.50;;;;;;;;;;5030495;28;20041;-64
2024/03/26 06:56:18;;;;;;;10.95;5.22;;;;;;;;;;5024131;28;20049;-66
2024/03/26 06:58:45;;;;;;;12.20;6.75;;;;;;;;;;5028536;28;20060;-65
2024/03/26 07:01:12;;;;;;;9.35;4.45;;;;;;;;;;5030666;28;20294;-66
2024/03/26 07:03:38;;;;;;;8.30;4.65;;;;;;;;;;5028848;28;20096;-66
2024/03/26 07:06:06;;;;;;;6.85;4.40;;;;;;;;;;5029422;28;20041;-65
2024/03/26 07:08:32;;;;;;;8.70;4.20;;;;;;;;;;5030493;28;20037;-66
2024/03/26 07:10:58;;;;;;;9.13;4.90;;;;;;;;;;5030973;28;20034;-65
2024/03/26 07:13:27;;;;;;;8.25;4.22;;;;;;;;;;5029056;28;20053;-67
2024/03/26 07:15:53;;;;;;;10.38;4.38;;;;;;;;;;5030669;28;20053;-65
2024/03/26 07:18:19;;;;;;;7.40;3.60;;;;;;;;;;5030566;28;20395;-66
2024/03/26 07:20:45;;;;;;;8.38;5.57;;;;;;;;;;5030790;28;20052;-66
2024/03/26 07:23:10;;;;;;;8.95;4.07;;;;;;;;;;5030456;28;20030;-65
2024/03/26 07:25:36;;;;;;;7.00;4.55;;;;;;;;;;5029948;28;20037;-65
2024/03/26 07:28:02;;;;;;;6.50;4.07;;;;;;;;;;5034647;28;20025;-64
2024/03/26 07:30:28;;;;;;;9.52;4.10;;;;;;;;;;5034378;28;20095;-66
2024/03/26 07:32:53;;;;;;;13.25;4.80;;;;;;;;;;5034595;28;20068;-67
2024/03/26 07:35:19;;;;;;;9.43;4.95;;;;;;;;;;5034683;28;20044;-63
2024/03/26 07:37:45;;;;;;;10.23;5.05;;;;;;;;;;5016735;28;20048;-64
2024/03/26 07:40:11;;;;;;;6.78;4.53;;;;;;;;;;5034249;28;20426;-63
2024/03/26 07:42:37;;;;;;;8.10;5.28;;;;;;;;;;5034314;28;20063;-65
2024/03/26 07:45:03;;;;;;;8.00;4.40;;;;;;;;;;5034218;28;20033;-64
2024/03/26 07:47:30;;;;;;;9.57;4.68;;;;;;;;;;5033013;28;20064;-65
2024/03/26 07:49:57;;;;;;;8.50;4.38;;;;;;;;;;5032587;28;20483;-63
2024/03/26 07:52:22;;;;;;;9.45;6.57;;;;;;;;;;5034310;28;20037;-65
2024/03/26 07:54:48;;;;;;;7.90;4.32;;;;;;;;;;5033744;28;20099;-63
2024/03/26 07:57:13;;;;;;;9.23;4.25;;;;;;;;;;5034352;28;20042;-65
2024/03/26 07:59:39;;;;;;;7.75;4.15;;;;;;;;;;5033413;28;20140;-64
2024/03/26 08:02:04;;;;;;;9.13;4.47;;;;;;;;;;5034090;28;20069;-64
2024/03/26 08:04:30;;;;;;;9.90;5.35;;;;;;;;;;5032508;28;20492;-65
2024/03/26 08:06:55;;;;;;;7.90;3.75;;;;;;;;;;5033501;28;20074;-64
2024/03/26 08:09:21;;;;;;;6.78;3.40;;;;;;;;;;5026471;28;20036;-64
2024/03/26 08:11:46;;;;;;;10.43;3.47;;;;;;;;;;5033362;28;20075;-64
2024/03/26 08:14:12;;;;;;;6.35;3.42;;;;;;;;;;5058291;28;20046;-63
2024/03/26 08:16:38;;;;;;;7.38;3.60;;;;;;;;;;5032663;28;20029;-65
2024/03/26 08:19:03;;;;;;;5.22;3.60;;;;;;;;;;5033505;28;20037;-63
2024/03/26 08:21:29;;;;;;;9.70;3.50;;;;;;;;;;5032788;28;20041;-65
2024/03/26 08:23:54;;;;;;;8.10;3.67;;;;;;;;;;5032252;28;20529;-64
2024/03/26 08:26:20;;;;;;;5.80;3.33;;;;;;;;;;5033719;28;20038;-65
2024/03/26 08:28:45;;;;;;;5.15;3.25;;;;;;;;;;5033612;28;20040;-65
2024/03/26 08:31:11;;;;;;;6.57;3.38;;;;;;;;;;5032145;28;20034;-66
2024/03/26 08:33:37;;;;;;;7.63;2.92;;;;;;;;;;5033361;28;20079;-66
2024/03/26 08:36:04;;;;;;;9.27;3.78;;;;;;;;;;5033355;28;20033;-66
2024/03/26 08:38:31;;;;;;;4.95;3.78;;;;;;;;;;5032147;28;20082;-65
2024/03/26 08:40:56;;;;;;;9.07;3.30;;;;;;;;;;5015414;28;20128;-66
2024/03/26 08:43:22;;;;;;;5.85;2.47;;;;;;;;;;5033393;28;20092;-66
2024/03/26 08:45:48;;;;;;;8.45;3.38;;;;;;;;;;5024414;28;20123;-65
2024/03/26 08:48:14;;;;;;;7.47;3.10;;;;;;;;;;5031825;28;20029;-66
2024/03/26 08:50:39;;;;;;;4.45;2.97;;;;;;;;;;5029870;28;20040;-65
2024/03/26 08:53:05;;;;;;;6.88;3.28;;;;;;;;;;5020702;28;20124;-66
2024/03/26 08:55:31;;;;;;;8.73;3.08;;;;;;;;;;5030026;28;20076;-65
2024/03/26 08:57:57;;;;;;;7.53;3.42;;;;;;;;;;5032765;28;20038;-66
2024/03/26 09:00:23;;;;;;;6.32;2.67;;;;;;;;;;5042243;28;20148;-66
2024/03/26 09:02:48;;;;;;;6.80;3.05;;;;;;;;;;5031773;28;20052;-65
2024/03/26 09:05:14;;;;;;;5.55;2.80;;;;;;;;;;5033024;28;20060;-66
2024/03/26 09:07:40;;;;;;;6.22;3.03;;;;;;;;;;5031027;28;20037;-66
2024/03/26 09:10:06;;;;;;;4.35;2.60;;;;;;;;;;5031265;28;20045;-64
2024/03/26 09:12:35;;;;;;;7.88;2.80;;;;;;;;;;5031079;28;20461;-66
2024/03/26 09:15:01;;;;;;;5.15;2.67;;;;;;;;;;5033060;28;20407;-65
2024/03/26 09:17:30;;;;;;;5.35;2.40;;;;;;;;;;5031666;28;20080;-66
2024/03/26 09:19:56;;;;;;;9.27;3.33;;;;;;;;;;5032586;28;20065;-65
2024/03/26 09:22:21;;;;;;;5.22;2.83;;;;;;;;;;5031272;28;20467;-66
2024/03/26 09:24:47;;;;;;;4.47;2.92;;;;;;;;;;5032655;28;20065;-65
2024/03/26 09:27:13;;;;;;;4.15;2.72;;;;;;;;;;5032596;28;20178;-65
2024/03/26 09:29:39;;;;;;;5.20;2.70;;;;;;;;;;5030639;28;20396;-66
2024/03/26 09:32:08;;;;;;;4.40;2.50;;;;;;;;;;5031230;28;20068;-68
2024/03/26 09:34:37;;;;;;;5.35;2.40;;;;;;;;;;5014462;28;20053;-66
2024/03/26 09:37:03;;;;;;;4.10;2.40;;;;;;;;;;5032208;28;20041;-66
2024/03/26 09:39:28;;;;;;;5.07;2.55;;;;;;;;;;5028733;28;20082;-65
2024/03/26 09:41:57;;;;;;;3.60;2.38;;;;;;;;;;5023140;28;20038;-66
2024/03/26 09:44:24;;;;;;;4.82;2.60;;;;;;;;;;5036809;28;20029;-66
2024/03/26 09:46:50;;;;;;;4.20;2.45;;;;;;;;;;5031747;28;20037;-66
2024/03/26 09:49:17;;;;;;;3.85;2.50;;;;;;;;;;5031088;28;20053;-66
2024/03/26 09:51:45;;;;;;;6.03;2.40;;;;;;;;;;5030197;28;20040;-66
2024/03/26 09:54:11;;;;;;;4.18;2.28;;;;;;;;;;5028457;28;20526;-66
2024/03/26 09:56:37;;;;;;;5.07;2.50;;;;;;;;;;5031513;28;20037;-65
2024/03/26 09:59:02;;;;;;;3.55;2.08;;;;;;;;;;5054564;28;20232;-66
2024/03/26 10:01:36;;;;;;;6.70;2.40;;;;;;;;;;5032178;28;20415;-64
2024/03/26 10:04:41;;;;;;;3.70;2.15;;;;;;;;;;5018270;28;20037;-64
2024/03/26 10:07:07;;;;;;;5.55;2.35;;;;;;;;;;5030144;28;20082;-66
2024/03/26 10:09:32;;;;;;;6.25;2.63;;;;;;;;;;5031438;28;20037;-67
2024/03/26 10:11:58;;;;;;;4.40;2.38;;;;;;;;;;5031328;28;20037;-64
2024/03/26 10:14:24;;;;;;;5.45;2.63;;;;;;;;;;5029942;28;20041;-65
2024/03/26 10:16:49;;;;;;;5.32;2.38;;;;;;;;;;5030399;28;20061;-66
2024/03/26 10:19:15;;;;;;;6.30;2.35;;;;;;;;;;5030447;28;20037;-66
2024/03/26 10:21:47;;;;;;;4.82;2.90;;;;;;;;;;5031350;28;20407;-66
2024/03/26 10:24:12;;;;;;;4.68;2.67;;;;;;;;;;5030060;28;20559;-67
2024/03/26 10:26:38;;;;;;;6.30;2.78;;;;;;;;;;5031517;28;20136;-67
2024/03/26 10:29:04;;;;;;;6.05;2.50;;;;;;;;;;5031854;28;20114;-65
2024/03/26 10:31:29;;;;;;;2.88;2.20;;;;;;;;;;5031314;28;20137;-65
2024/03/26 10:33:56;;;;;;;4.63;2.08;;;;;;;;;;5029870;28;20052;-64
2024/03/26 10:36:21;;;;;;;3.47;2.10;;;;;;;;;;5029524;28;20047;-66
2024/03/26 10:38:48;;;;;;;4.88;2.25;;;;;;;;;;5030006;28;20037;-65
2024/03/26 10:41:23;;;;;;;5.57;2.65;;;;;;;;;;5031069;28;20137;-64
2024/03/26 10:43:50;;;;;;;5.18;2.10;;;;;;;;;;5031506;28;20033;-65
2024/03/26 10:46:16;;;;;;;7.32;2.70;;;;;;;;;;5029258;28;20155;-64
2024/03/26 10:48:43;;;;;;;7.88;2.85;;;;;;;;;;5031162;28;20076;-62
2024/03/26 10:51:09;;;;;;;4.22;2.30;;;;;;;;;;5030672;28;20037;-65
2024/03/26 10:53:35;;;;;;;3.65;2.25;;;;;;;;;;5030928;28;20049;-64
2024/03/26 10:56:01;;;;;;;3.85;2.78;;;;;;;;;;5030563;28;20506;-63
2024/03/26 10:58:26;;;;;;;5.82;2.70;;;;;;;;;;5031038;28;20037;-63
2024/03/26 11:00:53;;;;;;;4.88;2.38;;;;;;;;;;5032422;28;20037;-63
2024/03/26 11:03:19;;;;;;;3.13;2.20;;;;;;;;;;5037900;28;20037;-66
2024/03/26 11:05:45;;;;;;;4.05;2.13;;;;;;;;;;5035859;28;20572;-65
2024/03/26 11:08:14;;;;;;;5.60;2.30;;;;;;;;;;5037919;28;20045;-65
2024/03/26 11:10:58;;;;;;;5.25;2.45;;;;;;;;;;5037274;28;20096;-63
2024/03/26 11:13:24;;;;;;;6.05;2.80;;;;;;;;;;5037554;28;20047;-64
2024/03/26 11:15:50;;;;;;;6.13;2.72;;;;;;;;;;5053080;28;20037;-66
2024/03/26 11:18:25;;;;;;;5.18;2.55;;;;;;;;;;5036059;28;20499;-65
2024/03/26 11:20:51;;;;;;;4.57;2.40;;;;;;;;;;5037571;28;20033;-65
2024/03/26 11:23:20;;;;;;;6.05;2.15;;;;;;;;;;5037246;28;20138;-65
2024/03/26 11:25:52;;;;;;;7.13;2.40;;;;;;;;;;5035631;28;20399;-65
2024/03/26 11:28:20;;;;;;;2.67;1.92;;;;;;;;;;5037036;28;20045;-68
2024/03/26 11:30:45;;;;;;;3.45;2.10;;;;;;;;;;5035853;28;20033;-66
2024/03/26 11:33:20;;;;;;;5.47;2.05;;;;;;;;;;5037094;28;20049;-65
2024/03/26 11:35:46;;;;;;;3.08;2.00;;;;;;;;;;5035749;28;20037;-65
2024/03/26 11:38:12;;;;;;;3.28;1.88;;;;;;;;;;5036966;28;20039;-65
2024/03/26 11:40:38;;;;;;;4.45;2.05;;;;;;;;;;5037071;28;20037;-66
2024/03/26 11:43:04;;;;;;;5.22;2.20;;;;;;;;;;5037074;28;20525;-64
2024/03/26 11:45:29;;;;;;;3.92;1.90;;;;;;;;;;5035543;28;20057;-63
2024/03/26 11:47:55;;;;;;;2.95;1.73;;;;;;;;;;5036799;28;20130;-66
2024/03/26 11:50:20;;;;;;;3.97;1.90;;;;;;;;;;5037275;28;20063;-64
2024/03/26 11:52:46;;;;;;;3.65;2.00;;;;;;;;;;5037263;28;20487;-65
2024/03/26 11:55:12;;;;;;;4.75;2.05;;;;;;;;;;5035871;28;20083;-63
2024/03/26 11:57:39;;;;;;;3.03;1.67;;;;;;;;;;5035773;28;20039;-65
2024/03/26 12:00:05;;;;;;;4.50;1.80;;;;;;;;;;5035475;28;20144;-65
2024/03/26 12:02:35;;;;;;;2.92;1.55;;;;;;;;;;5036733;28;20041;-65
2024/03/26 12:05:03;;;;;;;2.97;1.90;;;;;;;;;;5035524;28;20039;-65
2024/03/26 12:07:31;;;;;;;3.40;1.92;;;;;;;;;;5035745;28;20284;-66
2024/03/26 12:09:57;;;;;;;4.05;1.73;;;;;;;;;;5035420;28;20033;-66
2024/03/26 12:12:24;;;;;;;3.40;1.73;;;;;;;;;;5035475;28;20422;-64
2024/03/26 12:14:50;;;;;;;2.38;1.60;;;;;;;;;;5032369;28;20506;-64
2024/03/26 12:17:15;;;;;;;3.42;1.80;;;;;;;;;;5033941;28;20041;-66
2024/03/26 12:19:41;;;;;;;1.77;1.63;;;;;;;;;;5013106;28;20040;-65
2024/03/26 12:22:08;;;;;;;3.38;1.60;;;;;;;;;;5033222;28;20079;-66
2024/03/26 12:24:34;;;;;;;2.10;1.50;;;;;;;;;;5033271;28;20064;-65
2024/03/26 12:27:00;;;;;;;3.08;1.73;;;;;;;;;;5021965;28;20037;-66
2024/03/26 12:29:26;;;;;;;4.97;1.90;;;;;;;;;;5027297;28;20025;-66
2024/03/26 12:31:52;;;;;;;3.55;1.58;;;;;;;;;;5023162;28;20380;-65
2024/03/26 12:34:18;;;;;;;2.63;1.58;;;;;;;;;;5025964;28;20046;-65
2024/03/26 12:36:48;;;;;;;3.42;1.70;;;;;;;;;;5023369;28;20038;-66
2024/03/26 12:39:14;;;;;;;6.45;1.98;;;;;;;;;;5028708;28;20129;-65
2024/03/26 12:41:39;;;;;;;3.22;1.55;;;;;;;;;;5040546;28;20136;-65
2024/03/26 12:44:14;;;;;;;2.88;1.70;;;;;;;;;;5017021;28;20223;-64
2024/03/26 12:46:40;;;;;;;4.60;2.00;;;;;;;;;;5032597;28;20083;-65
2024/03/26 12:49:06;;;;;;;2.50;1.83;;;;;;;;;;5032981;28;20025;-65
2024/03/26 12:51:32;;;;;;;4.13;2.20;;;;;;;;;;5033022;28;20048;-65
2024/03/26 12:54:05;;;;;;;3.33;1.90;;;;;;;;;;5032856;28;20586;-65
2024/03/26 12:56:31;;;;;;;3.50;2.15;;;;;;;;;;5031626;28;20033;-65
2024/03/26 12:58:57;;;;;;;5.95;2.20;;;;;;;;;;5030706;28;20080;-65
2024/03/26 13:01:23;;;;;;;1.55;1.45;;;;;;;;;;5032743;28;20037;-66
2024/03/26 13:03:49;;;;;;;2.55;1.50;;;;;;;;;;5032706;28;20037;-66
2024/03/26 13:06:15;;;;;;;2.75;1.80;;;;;;;;;;5031158;28;20033;-64
2024/03/26 13:08:41;;;;;;;3.33;1.42;;;;;;;;;;5032457;28;20049;-69
2024/03/26 13:11:10;;;;;;;5.45;2.28;;;;;;;;;;5032372;28;20395;-65
2024/03/26 13:13:36;;;;;;;3.10;1.97;;;;;;;;;;5032717;28;20092;-66
2024/03/26 13:16:01;;;;;;;2.00;1.80;;;;;;;;;;5030794;28;20037;-67
2024/03/26 13:18:27;;;;;;;1.83;1.52;;;;;;;;;;5032784;28;20040;-67
2024/03/26 13:20:52;;;;;;;4.90;1.85;;;;;;;;;;5032071;28;20037;-67
2024/03/26 13:23:18;;;;;;;3.55;1.67;;;;;;;;;;5030885;28;20071;-65
2024/03/26 13:25:44;;;;;;;5.20;1.60;;;;;;;;;;5032089;28;20129;-65
2024/03/26 13:28:09;;;;;;;3.35;2.00;;;;;;;;;;5031399;28;20473;-65
2024/03/26 13:30:35;;;;;;;2.28;1.80;;;;;;;;;;5031907;28;20411;-66
2024/03/26 13:33:01;;;;;;;5.05;2.05;;;;;;;;;;5031009;28;20095;-67
2024/03/26 13:35:26;;;;;;;3.40;1.83;;;;;;;;;;5032032;28;20026;-65
2024/03/26 13:37:52;;;;;;;5.25;2.10;;;;;;;;;;5031719;28;20037;-65
2024/03/26 13:40:18;;;;;;;2.45;1.60;;;;;;;;;;5032215;28;20044;-64
2024/03/26 13:42:48;;;;;;;3.33;1.70;;;;;;;;;;5013942;28;20052;-65
2024/03/26 13:45:14;;;;;;;3.70;1.80;;;;;;;;;;5032020;28;20028;-63
2024/03/26 13:47:40;;;;;;;3.80;1.65;;;;;;;;;;5031515;28;20045;-66
2024/03/26 13:50:06;;;;;;;2.13;1.55;;;;;;;;;;5032091;28;20069;-66
2024/03/26 13:52:31;;;;;;;2.67;1.63;;;;;;;;;;5030673;28;20034;-66
2024/03/26 13:54:57;;;;;;;3.92;1.30;;;;;;;;;;5031509;28;20072;-65
2024/03/26 13:57:24;;;;;;;2.20;1.63;;;;;;;;;;5018872;28;20038;-71
2024/03/26 13:59:49;;;;;;;3.13;1.52;;;;;;;;;;5015118;28;20065;-63
2024/03/26 14:02:18;;;;;;;1.50;1.40;;;;;;;;;;5031572;28;20049;-66
2024/03/26 14:04:43;;;;;;;2.60;1.45;;;;;;;;;;5031501;28;20033;-65
2024/03/26 14:07:09;;;;;;;1.70;1.23;;;;;;;;;;5030620;28;20112;-65
2024/03/26 14:09:37;;;;;;;3.25;1.50;;;;;;;;;;5031144;28;20033;-65
2024/03/26 14:12:02;;;;;;;3.10;2.00;;;;;;;;;;5030314;28;20518;-66
2024/03/26 14:14:28;;;;;;;5.53;1.63;;;;;;;;;;5031443;28;20048;-64
2024/03/26 14:16:53;;;;;;;3.97;1.35;;;;;;;;;;5030122;28;20669;-67
2024/03/26 14:19:19;;;;;;;5.55;2.13;;;;;;;;;;5031728;28;20107;-65
2024/03/26 14:21:48;;;;;;;4.03;1.75;;;;;;;;;;5030246;28;20046;-64
2024/03/26 14:24:13;;;;;;;3.13;1.70;;;;;;;;;;5030204;28;20030;-64
2024/03/26 14:26:39;;;;;;;3.72;2.17;;;;;;;;;;5030770;28;20103;-65
2024/03/26 14:29:05;;;;;;;4.57;2.40;;;;;;;;;;5030325;28;20033;-66
2024/03/26 14:31:30;;;;;;;4.07;2.38;;;;;;;;;;5030904;28;20040;-66